Mancos, CO

11:20 PM MDT on August 02, 2015 (GMT -0600)
Merritt Subdivision | | Change Station
CLOSE
Current Station
Personal Weather Station
Location: Dolores, CO
Elevation: 7028 ft
Nearby Weather Stations

Elev 7028 ft 37.47 °N, 108.49 °W | Updated 8 seconds ago

Overcast
Overcast
58.7 °F
Feels Like 58.7 °F
N
0.0
Wind Variable Wind from NNW
Gusts 0.0 mph

Today
High -- | Low -- °F
--% Chance of Precip.
Yesterday
High -- | Low -- °F
Precip. -- in
6:18 AM 8:20 PM
Waning Gibbous, 89% visible
Pressure 29.98 in
Visibility 10.0 miles
Clouds Mostly Cloudy 6000 ft
Mostly Cloudy 7500 ft
Dew Point 56 °F
Humidity 91%
Rainfall 0.02 in
Snow Depth Not available.
UV 0 out of 12
Pollen 3.70 out of 12
Air Quality Not available.
Flu Activity Not available.
METAR KCEZ 030453Z AUTO 22006KT 10SM BKN060 BKN075 18/16 A3019 RMK AO2 SLP150 T01830156

More Conditions Fewer Conditions

Pressure 29.98 in
Visibility 10.0 miles
Clouds Mostly Cloudy 6000 ft
Mostly Cloudy 7500 ft
Dew Point 56 °F
Humidity 91%
Rainfall 0.02 in
Snow Depth Not available.
UV 0 out of 12
Pollen 3.70 out of 12
Air Quality Not available.
Flu Activity Not available.
METAR KCEZ 030453Z AUTO 22006KT 10SM BKN060 BKN075 18/16 A3019 RMK AO2 SLP150 T01830156

More Conditions Fewer Conditions

10-Day Weather Forecast

×

Almanac

Astronomy

Aug. 02, 2015 Rise Set
Actual Time
Civil Twilight
Nautical Twilight
Astronomical Twilight
Moon
Length of Visible Light
Length of Day
Tomorrow will be .
, % of the Moon is Illuminated

Today's Extremes

State Highs State Lows

Community

WunderPhotos

Upload Photos

1,843,585 photos uploaded!

WunderBlogs® & News

Nearby

Air Quality

  Air Quality AQ Index Pollutant
Not available.

Snow Depth

Station Depth Elevation

Earthquake Activity

City Distance Mag. Time & Date
Minimum magnitude displayed is 2.5.

Coastal Water Temperatures

Place Temperature

Stations

Nearby Weather Stations

Station Location Temp. Windchill Dew Point Humidity Wind Precip. Elev Updated Type